KSPA/SPA METAR and TAF weather

Enter ICAO airport designator
Station Type Date Time Source
KSPA METAR 2022/06/28 14:35 UTC NOAA

KSPA 281435Z AUTO 05007KT 10SM SCT043 SCT065 24/12 A3021 RMK AO2


Station Type Date Time Source
KSPA Decoded METAR 2022/06/28 14:35 UTC NOAA

Spartanburg Memorial, SC, United States (KSPA) 34-55N 081-57W
Jun 28, 2022 - 10:35 AM EDT / 2022.06.28 1435 UTC
Wind: from the NE (050 degrees) at 8 MPH (7 KT):0
Visibility: 10 mile(s):0
Sky conditions: partly cloudy
Temperature: 75 F (24 C)
Dew Point: 53 F (12 C)
Relative Humidity: 46%
Pressure (altimeter): 30.21 in. Hg (1023 hPa)
ob: KSPA 281435Z AUTO 05007KT 10SM SCT043 SCT065 24/12 A3021 RMK AO2
cycle: 14

Station Type Date Time Source
KSPA TAF UTC NOAA

Error!

Example: see airport list